Time;durP1;ratioP1;P1;durP2;ratioP2;P2;SDS_P1;SDS_P2;PMS_P1;PMS_P2;Temp;Humidity;BMP_temperature;BMP_pressure;BME280_temperature;BME280_humidity;BME280_pressure;Samples;Min_cycle;Max_cycle;Signal;HPM_P1;HPM_P2
2023/03/01 00:01:22;;;;;;;;;;;0.60;99.90;;;;;;5100428;28;19908;-79
2023/03/01 00:03:48;;;;;;;;;;;0.60;99.90;;;;;;5100502;28;20332;-78
2023/03/01 00:06:13;;;;;;;;;;;0.60;99.90;;;;;;5100408;28;19961;-78
2023/03/01 00:08:39;;;;;;;;;;;0.60;99.90;;;;;;5100466;28;20360;-78
2023/03/01 00:11:07;;;;;;;;;;;0.50;99.90;;;;;;5082087;28;19921;-78
2023/03/01 00:13:33;;;;;;;;;;;0.50;99.90;;;;;;5099413;28;19912;-78
2023/03/01 00:16:01;;;;;;;;;;;0.50;99.90;;;;;;5099367;28;19908;-78
2023/03/01 00:18:26;;;;;;;;;;;0.50;99.90;;;;;;5098881;28;19915;-78
2023/03/01 00:20:52;;;;;;;;;;;0.50;99.90;;;;;;5081684;28;19916;-78
2023/03/01 00:23:18;;;;;;;;;;;0.50;99.90;;;;;;5099134;28;19964;-78
2023/03/01 00:25:44;;;;;;;;;;;0.50;99.90;;;;;;5099800;28;19908;-78
2023/03/01 00:28:09;;;;;;;;;;;0.50;99.90;;;;;;5098780;28;19919;-78
2023/03/01 00:30:35;;;;;;;;;;;0.50;99.90;;;;;;5081287;28;19913;-78
2023/03/01 00:33:00;;;;;;;;;;;0.60;99.90;;;;;;5099163;28;20427;-78
2023/03/01 00:35:26;;;;;;;;;;;0.60;99.90;;;;;;5099137;28;20325;-78
2023/03/01 00:37:57;;;;;;;;;;;0.60;99.90;;;;;;5099119;28;20296;-78
2023/03/01 00:40:23;;;;;;;;;;;0.50;99.90;;;;;;5099572;28;19948;-78
2023/03/01 00:42:49;;;;;;;;;;;0.50;99.90;;;;;;5098805;28;19920;-78
2023/03/01 00:45:15;;;;;;;;;;;0.50;99.90;;;;;;5098602;28;19993;-78
2023/03/01 00:47:40;;;;;;;;;;;0.50;99.90;;;;;;5098519;28;19934;-78
2023/03/01 00:50:06;;;;;;;;;;;0.50;99.90;;;;;;5098841;28;19913;-78
2023/03/01 00:52:32;;;;;;;;;;;0.50;99.90;;;;;;5098621;28;19981;-78
2023/03/01 00:54:57;;;;;;;;;;;0.50;99.90;;;;;;5098795;28;19961;-78
2023/03/01 00:57:23;;;;;;;;;;;0.50;99.90;;;;;;5098386;28;19920;-78
2023/03/01 00:59:49;;;;;;;;;;;0.60;99.90;;;;;;5098569;28;20398;-78
2023/03/01 01:02:14;;;;;;;;;;;0.50;99.90;;;;;;5098588;28;19908;-78
2023/03/01 01:04:40;;;;;;;;;;;0.60;99.90;;;;;;5098465;28;20402;-78
2023/03/01 01:07:06;;;;;;;;;;;0.60;99.90;;;;;;5098620;28;19912;-78
2023/03/01 01:09:31;;;;;;;;;;;0.60;99.90;;;;;;5098856;28;19908;-78
2023/03/01 01:11:57;;;;;;;;;;;0.60;99.90;;;;;;5097857;28;19964;-78
2023/03/01 01:14:22;;;;;;;;;;;0.60;99.90;;;;;;5098182;28;19920;-78
2023/03/01 01:16:48;;;;;;;;;;;0.60;99.90;;;;;;5097850;28;19912;-78
2023/03/01 01:19:14;;;;;;;;;;;0.60;99.90;;;;;;5098442;28;19915;-78
2023/03/01 01:21:40;;;;;;;;;;;0.60;99.90;;;;;;5098475;28;19908;-78
2023/03/01 01:24:06;;;;;;;;;;;0.60;99.90;;;;;;5079926;28;20382;-78
2023/03/01 01:26:33;;;;;;;;;;;0.60;99.90;;;;;;5080183;28;19977;-78
2023/03/01 01:28:59;;;;;;;;;;;0.60;99.90;;;;;;5097874;28;20008;-78
2023/03/01 01:31:26;;;;;;;;;;;0.60;99.90;;;;;;5097793;28;19908;-78
2023/03/01 01:33:52;;;;;;;;;;;0.60;99.90;;;;;;5098341;28;19908;-78
2023/03/01 01:36:17;;;;;;;;;;;0.60;99.90;;;;;;5098401;28;19912;-78
2023/03/01 01:38:43;;;;;;;;;;;0.50;99.90;;;;;;5097964;28;19915;-78
2023/03/01 01:41:11;;;;;;;;;;;0.50;99.90;;;;;;5079200;28;19919;-78
2023/03/01 01:43:41;;;;;;;;;;;0.50;99.90;;;;;;5079452;28;19912;-78
2023/03/01 01:46:15;;;;;;;;;;;0.40;99.90;;;;;;5098151;28;19908;-79
2023/03/01 01:48:46;;;;;;;;;;;0.40;99.90;;;;;;5098074;28;19915;-78
2023/03/01 01:51:19;;;;;;;;;;;0.30;99.90;;;;;;5097054;28;20003;-78
2023/03/01 01:53:47;;;;;;;;;;;0.40;99.90;;;;;;5096831;28;19994;-78
2023/03/01 01:56:15;;;;;;;;;;;0.40;99.90;;;;;;5097829;28;19997;-78
2023/03/01 01:58:42;;;;;;;;;;;0.40;99.90;;;;;;5079678;28;19965;-78
2023/03/01 02:01:07;;;;;;;;;;;0.40;99.90;;;;;;5097631;28;20376;-78
2023/03/01 02:03:37;;;;;;;;;;;0.40;99.90;;;;;;5079655;28;19923;-78
2023/03/01 02:06:08;;;;;;;;;;;0.40;99.90;;;;;;5097310;28;19970;-78
2023/03/01 02:08:36;;;;;;;;;;;0.40;99.90;;;;;;5098251;28;19908;-78
2023/03/01 02:11:04;;;;;;;;;;;0.30;99.90;;;;;;5097954;28;19912;-78
2023/03/01 02:13:30;;;;;;;;;;;0.30;99.90;;;;;;5095264;28;19909;-76
2023/03/01 02:15:56;;;;;;;;;;;0.30;99.90;;;;;;5094495;28;19958;-76
2023/03/01 02:18:23;;;;;;;;;;;0.30;99.90;;;;;;5059609;28;19912;-76
2023/03/01 02:21:00;;;;;;;;;;;0.30;99.90;;;;;;5095116;28;19908;-77
2023/03/01 02:23:25;;;;;;;;;;;0.30;99.90;;;;;;5094840;28;19912;-76
2023/03/01 02:26:12;;;;;;;;;;;0.20;99.90;;;;;;5094264;28;19912;-76
2023/03/01 02:28:40;;;;;;;;;;;0.30;99.90;;;;;;5094136;28;19908;-76
2023/03/01 02:33:51;;;;;;;;;;;0.30;99.90;;;;;;5094465;28;19915;-76
2023/03/01 02:36:19;;;;;;;;;;;0.30;99.90;;;;;;5094459;28;20360;-76
2023/03/01 02:38:46;;;;;;;;;;;0.30;99.90;;;;;;5094382;28;19954;-76
2023/03/01 02:41:13;;;;;;;;;;;0.30;99.90;;;;;;5075994;28;19912;-76
2023/03/01 02:43:38;;;;;;;;;;;0.40;99.90;;;;;;5093693;28;19923;-76
2023/03/01 02:46:06;;;;;;;;;;;0.40;99.90;;;;;;5093962;28;19912;-76
2023/03/01 02:49:01;;;;;;;;;;;0.40;99.90;;;;;;5093956;28;20279;-76
2023/03/01 02:51:32;;;;;;;;;;;0.40;99.90;;;;;;5076614;28;19915;-76
2023/03/01 02:54:04;;;;;;;;;;;0.40;99.90;;;;;;5093940;28;19973;-76
2023/03/01 02:56:29;;;;;;;;;;;0.40;99.90;;;;;;5093837;28;20356;-76
2023/03/01 02:59:00;;;;;;;;;;;0.40;99.90;;;;;;5093442;28;19969;-76
2023/03/01 03:01:36;;;;;;;;;;;0.40;99.90;;;;;;5093937;28;20385;-76
2023/03/01 03:04:16;;;;;;;;;;;0.40;99.90;;;;;;5093879;28;19966;-76
2023/03/01 03:06:43;;;;;;;;;;;0.40;99.90;;;;;;5094115;28;19958;-76
2023/03/01 03:09:08;;;;;;;;;;;0.40;99.90;;;;;;5093786;28;19919;-76
2023/03/01 03:11:34;;;;;;;;;;;0.40;99.90;;;;;;5094122;28;19913;-76
2023/03/01 03:13:59;;;;;;;;;;;0.40;99.90;;;;;;5093494;28;19912;-76
2023/03/01 03:16:25;;;;;;;;;;;0.50;99.90;;;;;;5093744;28;19987;-76
2023/03/01 03:18:51;;;;;;;;;;;0.50;99.90;;;;;;5093709;28;19909;-76
2023/03/01 03:21:16;;;;;;;;;;;0.50;99.90;;;;;;5093692;28;19912;-76
2023/03/01 03:23:42;;;;;;;;;;;0.50;99.90;;;;;;5093588;28;20057;-76
2023/03/01 03:26:08;;;;;;;;;;;0.50;99.90;;;;;;5093637;28;20378;-76
2023/03/01 03:28:34;;;;;;;;;;;0.40;99.90;;;;;;5093295;28;20252;-76
2023/03/01 03:31:03;;;;;;;;;;;0.40;99.90;;;;;;5075769;28;19908;-76
2023/03/01 03:33:32;;;;;;;;;;;0.40;99.90;;;;;;5094381;28;19915;-76
2023/03/01 03:35:57;;;;;;;;;;;0.40;99.90;;;;;;5097468;28;20361;-76
2023/03/01 03:38:23;;;;;;;;;;;0.40;99.90;;;;;;5097429;28;19920;-76
2023/03/01 03:40:50;;;;;;;;;;;0.30;99.90;;;;;;5079512;28;19961;-76
2023/03/01 03:43:17;;;;;;;;;;;0.30;99.90;;;;;;5097544;28;19912;-76
2023/03/01 03:45:43;;;;;;;;;;;0.30;99.90;;;;;;5097030;28;19977;-76
2023/03/01 03:48:09;;;;;;;;;;;0.20;99.90;;;;;;5097186;28;19908;-76
2023/03/01 03:50:35;;;;;;;;;;;0.20;99.90;;;;;;5097323;28;19916;-76
2023/03/01 03:53:02;;;;;;;;;;;0.20;99.90;;;;;;5097168;28;19919;-76
2023/03/01 03:55:30;;;;;;;;;;;0.10;99.90;;;;;;5078925;28;19957;-76
2023/03/01 03:58:01;;;;;;;;;;;0.10;99.90;;;;;;5096918;28;19920;-76
2023/03/01 04:00:28;;;;;;;;;;;0.20;99.90;;;;;;5096872;28;19908;-76
2023/03/01 04:02:56;;;;;;;;;;;0.20;99.90;;;;;;5079142;28;20419;-76
2023/03/01 04:05:22;;;;;;;;;;;0.20;99.90;;;;;;5078729;28;19913;-76
2023/03/01 04:07:47;;;;;;;;;;;0.30;99.90;;;;;;5096866;28;19915;-76
2023/03/01 04:10:17;;;;;;;;;;;0.30;99.90;;;;;;5096838;28;19916;-76
2023/03/01 04:12:43;;;;;;;;;;;0.20;99.90;;;;;;5097360;28;20363;-76
2023/03/01 04:15:14;;;;;;;;;;;0.20;99.90;;;;;;5096326;28;19908;-76
2023/03/01 04:17:41;;;;;;;;;;;0.20;99.90;;;;;;5096698;28;19908;-76
2023/03/01 04:20:08;;;;;;;;;;;0.20;99.90;;;;;;5078269;28;19943;-77
2023/03/01 04:22:33;;;;;;;;;;;0.20;99.90;;;;;;5095850;28;20331;-76
2023/03/01 04:25:05;;;;;;;;;;;0.20;99.90;;;;;;5078430;28;19951;-76
2023/03/01 04:27:34;;;;;;;;;;;0.20;99.90;;;;;;5096471;28;19912;-76
2023/03/01 04:29:59;;;;;;;;;;;0.20;99.90;;;;;;5096241;28;20352;-76
2023/03/01 04:32:25;;;;;;;;;;;0.30;99.90;;;;;;5096177;28;19920;-76
2023/03/01 04:34:50;;;;;;;;;;;0.30;99.90;;;;;;5097261;28;19908;-76
2023/03/01 04:37:16;;;;;;;;;;;0.30;99.90;;;;;;5094495;28;19919;-76
2023/03/01 04:39:45;;;;;;;;;;;0.30;99.90;;;;;;5095836;28;19912;-76
2023/03/01 04:42:11;;;;;;;;;;;0.30;99.90;;;;;;5095622;28;20390;-76
2023/03/01 04:44:37;;;;;;;;;;;0.30;99.90;;;;;;5094502;28;19912;-76
2023/03/01 04:47:03;;;;;;;;;;;0.30;99.90;;;;;;5095130;28;19920;-76
2023/03/01 04:49:28;;;;;;;;;;;0.30;99.90;;;;;;5094628;28;20415;-76
2023/03/01 04:51:54;;;;;;;;;;;0.30;99.90;;;;;;5095635;28;19954;-76
2023/03/01 04:54:19;;;;;;;;;;;0.20;99.90;;;;;;5090994;28;20399;-76
2023/03/01 04:56:45;;;;;;;;;;;0.20;99.90;;;;;;5086702;28;19916;-76
2023/03/01 04:59:12;;;;;;;;;;;0.20;99.90;;;;;;5087057;28;19923;-76
2023/03/01 05:01:38;;;;;;;;;;;0.10;99.90;;;;;;5094542;28;20360;-76
2023/03/01 05:04:05;;;;;;;;;;;0.20;99.90;;;;;;5075343;28;19923;-76
2023/03/01 05:06:31;;;;;;;;;;;0.10;99.90;;;;;;5095440;28;20419;-76
2023/03/01 05:08:56;;;;;;;;;;;0.10;99.90;;;;;;5095534;28;19943;-76
2023/03/01 05:11:22;;;;;;;;;;;0.10;99.90;;;;;;5095429;28;20025;-76
2023/03/01 05:13:49;;;;;;;;;;;0.10;99.90;;;;;;5095373;28;19961;-76
2023/03/01 05:16:16;;;;;;;;;;;0.10;99.90;;;;;;5088312;28;19919;-76
2023/03/01 05:18:43;;;;;;;;;;;0.20;99.90;;;;;;5088705;28;20089;-76
2023/03/01 05:21:10;;;;;;;;;;;0.20;99.90;;;;;;5088336;28;19998;-76
2023/03/01 05:23:36;;;;;;;;;;;0.20;99.90;;;;;;5081664;28;19938;-75
2023/03/01 05:26:03;;;;;;;;;;;0.10;99.90;;;;;;5095108;28;19952;-75
2023/03/01 05:28:30;;;;;;;;;;;0.10;99.90;;;;;;5095342;28;20348;-75
2023/03/01 05:30:55;;;;;;;;;;;0.20;99.90;;;;;;5094926;28;20015;-76
2023/03/01 05:33:21;;;;;;;;;;;0.20;99.90;;;;;;5094721;28;19969;-76
2023/03/01 05:35:48;;;;;;;;;;;0.20;99.90;;;;;;5094573;28;19916;-76
2023/03/01 05:38:14;;;;;;;;;;;0.10;99.90;;;;;;5094503;28;19908;-76
2023/03/01 05:40:40;;;;;;;;;;;0.10;99.90;;;;;;5094835;28;20280;-75
2023/03/01 05:43:06;;;;;;;;;;;0.10;99.90;;;;;;5076890;28;19916;-75
2023/03/01 05:45:32;;;;;;;;;;;0.10;99.90;;;;;;5076432;28;19909;-75
2023/03/01 05:47:57;;;;;;;;;;;0.00;99.90;;;;;;5095525;28;19919;-75
2023/03/01 05:50:25;;;;;;;;;;;0.00;99.90;;;;;;5095229;28;19912;-76
2023/03/01 05:52:51;;;;;;;;;;;0.00;99.90;;;;;;5095508;28;20385;-75
2023/03/01 05:55:18;;;;;;;;;;;0.00;99.90;;;;;;5076627;28;19950;-75
2023/03/01 05:57:44;;;;;;;;;;;0.00;99.90;;;;;;5094329;28;20348;-75
2023/03/01 06:00:10;;;;;;;;;;;0.00;99.90;;;;;;5076359;28;19952;-75
2023/03/01 06:02:36;;;;;;;;;;;-0.10;99.90;;;;;;5094712;28;19986;-75
2023/03/01 06:05:02;;;;;;;;;;;-0.10;99.90;;;;;;5094628;28;20007;-75
2023/03/01 06:07:27;;;;;;;;;;;-0.10;99.90;;;;;;5095633;28;20331;-75
2023/03/01 06:09:53;;;;;;;;;;;-0.10;99.90;;;;;;5094561;28;19955;-75
2023/03/01 06:12:19;;;;;;;;;;;-0.10;99.90;;;;;;5094513;28;20007;-75
2023/03/01 06:14:45;;;;;;;;;;;-0.10;99.90;;;;;;5094298;28;19912;-75
2023/03/01 06:17:10;;;;;;;;;;;-0.10;99.90;;;;;;5094377;28;20325;-75
2023/03/01 06:19:36;;;;;;;;;;;-0.10;99.90;;;;;;5076283;28;20003;-75
2023/03/01 06:22:01;;;;;;;;;;;0.00;99.90;;;;;;5076327;28;20287;-75
2023/03/01 06:24:28;;;;;;;;;;;0.00;99.90;;;;;;5094256;28;20356;-75
2023/03/01 06:26:54;;;;;;;;;;;0.00;99.90;;;;;;5094194;28;19912;-75
2023/03/01 06:29:19;;;;;;;;;;;0.10;99.90;;;;;;5094065;28;19916;-76
2023/03/01 06:31:45;;;;;;;;;;;0.10;99.90;;;;;;5094355;28;19919;-75
2023/03/01 06:34:13;;;;;;;;;;;0.10;99.90;;;;;;5094519;28;20282;-76
2023/03/01 06:36:39;;;;;;;;;;;0.10;99.90;;;;;;5094115;28;19912;-75
2023/03/01 06:39:05;;;;;;;;;;;0.10;99.90;;;;;;5094113;28;19912;-77
2023/03/01 06:41:31;;;;;;;;;;;0.10;99.90;;;;;;5094085;28;19912;-76
2023/03/01 06:43:56;;;;;;;;;;;0.10;99.90;;;;;;5093996;28;19916;-75
2023/03/01 06:46:22;;;;;;;;;;;0.10;99.90;;;;;;5093679;28;20375;-75
2023/03/01 06:48:47;;;;;;;;;;;0.10;99.90;;;;;;5093988;28;19912;-75
2023/03/01 06:51:13;;;;;;;;;;;0.20;99.90;;;;;;5093938;28;19924;-75
2023/03/01 06:53:38;;;;;;;;;;;0.20;99.90;;;;;;5094273;28;19920;-75
2023/03/01 06:56:04;;;;;;;;;;;0.20;99.90;;;;;;5093812;28;19913;-76
2023/03/01 06:58:30;;;;;;;;;;;0.20;99.90;;;;;;5093746;28;20011;-75
2023/03/01 07:00:55;;;;;;;;;;;0.30;99.90;;;;;;5093616;28;20264;-75
2023/03/01 07:03:21;;;;;;;;;;;0.30;99.90;;;;;;5093741;28;20295;-75
2023/03/01 07:05:48;;;;;;;;;;;0.30;99.90;;;;;;5094316;28;19909;-74
2023/03/01 07:08:14;;;;;;;;;;;0.40;99.90;;;;;;5076108;28;19908;-75
2023/03/01 07:10:39;;;;;;;;;;;0.50;99.90;;;;;;5098106;28;20290;-74
2023/03/01 07:13:06;;;;;;;;;;;0.50;99.90;;;;;;5098095;28;20049;-75
2023/03/01 07:15:32;;;;;;;;;;;0.50;99.90;;;;;;5097882;28;19912;-75
2023/03/01 07:17:58;;;;;;;;;;;0.60;99.90;;;;;;5097888;28;19912;-74
2023/03/01 07:20:25;;;;;;;;;;;0.60;99.90;;;;;;5098073;28;19919;-76
2023/03/01 07:22:54;;;;;;;;;;;0.60;99.90;;;;;;5098055;28;19908;-76
2023/03/01 07:25:20;;;;;;;;;;;0.70;99.90;;;;;;5097774;28;19912;-76
2023/03/01 07:27:49;;;;;;;;;;;0.70;99.90;;;;;;5097683;28;19976;-76
2023/03/01 07:30:14;;;;;;;;;;;0.70;99.90;;;;;;5097537;28;19919;-76
2023/03/01 07:32:40;;;;;;;;;;;0.70;99.90;;;;;;5097625;28;19912;-75
2023/03/01 07:35:06;;;;;;;;;;;0.70;99.90;;;;;;5097547;28;19912;-75
2023/03/01 07:37:31;;;;;;;;;;;0.80;99.90;;;;;;5080670;28;19912;-76
2023/03/01 07:39:57;;;;;;;;;;;0.90;99.90;;;;;;5097858;28;19919;-75
2023/03/01 07:42:23;;;;;;;;;;;0.90;99.90;;;;;;5097431;28;20382;-75
2023/03/01 07:44:48;;;;;;;;;;;1.00;99.90;;;;;;5079035;28;19916;-75
2023/03/01 07:47:14;;;;;;;;;;;1.00;99.90;;;;;;5097222;28;19999;-75
2023/03/01 07:49:39;;;;;;;;;;;1.10;99.90;;;;;;5097617;28;19965;-75
2023/03/01 07:52:05;;;;;;;;;;;1.20;99.90;;;;;;5097209;28;19912;-75
2023/03/01 07:54:31;;;;;;;;;;;1.20;99.90;;;;;;5079327;28;19916;-75
2023/03/01 07:56:56;;;;;;;;;;;1.30;99.90;;;;;;5097058;28;20359;-75
2023/03/01 07:59:28;;;;;;;;;;;1.30;99.90;;;;;;5076653;28;19920;-75
2023/03/01 08:01:54;;;;;;;;;;;1.40;99.90;;;;;;5076805;28;19913;-75
2023/03/01 08:04:20;;;;;;;;;;;1.40;99.90;;;;;;5076442;28;19921;-75
2023/03/01 08:06:45;;;;;;;;;;;1.50;99.90;;;;;;5058697;28;20360;-75
2023/03/01 08:09:11;;;;;;;;;;;1.50;99.90;;;;;;5076661;28;20269;-75
2023/03/01 08:11:37;;;;;;;;;;;1.50;99.90;;;;;;5076610;28;20261;-75
2023/03/01 08:14:02;;;;;;;;;;;1.50;99.90;;;;;;5078950;28;19917;-78
2023/03/01 08:16:28;;;;;;;;;;;1.50;99.90;;;;;;5078098;28;19912;-78
2023/03/01 08:18:56;;;;;;;;;;;1.40;99.90;;;;;;5078157;28;20376;-78
2023/03/01 08:21:22;;;;;;;;;;;1.40;99.90;;;;;;5078404;28;20375;-78
2023/03/01 08:23:47;;;;;;;;;;;1.40;99.90;;;;;;5078768;28;19912;-78
2023/03/01 08:26:14;;;;;;;;;;;1.40;99.90;;;;;;5078160;28;20265;-78
2023/03/01 08:28:40;;;;;;;;;;;1.40;99.90;;;;;;5093189;28;19931;-78
2023/03/01 08:31:26;;;;;;;;;;;1.50;99.90;;;;;;5080141;28;20360;-78
2023/03/01 08:33:55;;;;;;;;;;;1.50;99.90;;;;;;5079801;28;19956;-78
2023/03/01 08:36:21;;;;;;;;;;;1.50;99.90;;;;;;5097836;28;19915;-78
2023/03/01 08:38:47;;;;;;;;;;;1.50;99.90;;;;;;5097948;28;20024;-78
2023/03/01 08:41:14;;;;;;;;;;;1.50;99.90;;;;;;5079793;28;20352;-78
2023/03/01 08:43:39;;;;;;;;;;;1.60;99.90;;;;;;5098218;28;19961;-78
2023/03/01 08:46:05;;;;;;;;;;;1.60;99.90;;;;;;5098323;28;19916;-78
2023/03/01 08:48:30;;;;;;;;;;;1.70;99.90;;;;;;5098492;28;19909;-78
2023/03/01 08:50:56;;;;;;;;;;;1.80;99.90;;;;;;5098562;28;20370;-78
2023/03/01 08:53:22;;;;;;;;;;;1.80;99.90;;;;;;5097832;28;20330;-78
2023/03/01 08:55:47;;;;;;;;;;;2.00;99.90;;;;;;5097758;28;19916;-78
2023/03/01 08:58:13;;;;;;;;;;;2.00;99.90;;;;;;5097663;28;19931;-78
2023/03/01 09:00:39;;;;;;;;;;;2.10;99.90;;;;;;5079619;28;19960;-78
2023/03/01 09:03:05;;;;;;;;;;;2.20;99.90;;;;;;5097925;28;20371;-78
2023/03/01 09:05:31;;;;;;;;;;;2.20;99.90;;;;;;5098242;28;19912;-77
2023/03/01 09:07:57;;;;;;;;;;;2.30;99.90;;;;;;5097909;28;19942;-78
2023/03/01 09:10:22;;;;;;;;;;;2.30;99.90;;;;;;5079232;28;19912;-78
2023/03/01 09:12:48;;;;;;;;;;;2.40;99.90;;;;;;5097115;28;20290;-78
2023/03/01 09:15:13;;;;;;;;;;;2.40;99.90;;;;;;5097376;28;19912;-78
2023/03/01 09:17:39;;;;;;;;;;;2.40;99.90;;;;;;5097234;28;20279;-78
2023/03/01 09:20:05;;;;;;;;;;;2.40;99.90;;;;;;5098028;28;20045;-78
2023/03/01 09:22:33;;;;;;;;;;;2.40;99.90;;;;;;5097051;28;19916;-78
2023/03/01 09:24:58;;;;;;;;;;;2.40;99.90;;;;;;5097545;28;20366;-78
2023/03/01 09:27:24;;;;;;;;;;;2.40;99.90;;;;;;5097495;28;19908;-78
2023/03/01 09:29:50;;;;;;;;;;;2.50;99.90;;;;;;5098544;28;19912;-78
2023/03/01 09:32:16;;;;;;;;;;;2.50;99.90;;;;;;5097860;28;19935;-78
2023/03/01 09:37:27;;;;;;;;;;;2.60;99.90;;;;;;5097529;28;20283;-78
2023/03/01 09:39:52;;;;;;;;;;;2.60;99.90;;;;;;5097564;28;19937;-78
2023/03/01 09:42:18;;;;;;;;;;;2.70;99.90;;;;;;5098361;28;19912;-79
2023/03/01 09:44:59;;;;;;;;;;;2.80;99.90;;;;;;5098078;28;19916;-78
2023/03/01 09:47:27;;;;;;;;;;;2.80;99.90;;;;;;5098714;28;19943;-78
2023/03/01 09:50:11;;;;;;;;;;;2.80;99.90;;;;;;5098970;28;20418;-79
2023/03/01 09:52:56;;;;;;;;;;;2.90;99.90;;;;;;5099057;28;19912;-78
2023/03/01 09:55:26;;;;;;;;;;;2.90;99.90;;;;;;5098884;28;20065;-79
2023/03/01 09:57:56;;;;;;;;;;;3.00;99.90;;;;;;5097939;28;19922;-78
2023/03/01 10:00:27;;;;;;;;;;;3.00;99.90;;;;;;5097452;28;19915;-78
2023/03/01 10:03:13;;;;;;;;;;;3.10;99.90;;;;;;5096973;28;19926;-78
2023/03/01 10:05:38;;;;;;;;;;;3.10;99.90;;;;;;5097727;28;20344;-79
2023/03/01 10:08:26;;;;;;;;;;;3.10;99.90;;;;;;5097165;28;19916;-79
2023/03/01 10:10:53;;;;;;;;;;;3.20;99.90;;;;;;5097774;28;19955;-78
2023/03/01 10:13:24;;;;;;;;;;;3.20;99.90;;;;;;5098721;28;19947;-78
2023/03/01 10:15:58;;;;;;;;;;;3.30;99.90;;;;;;5097981;28;19915;-79
2023/03/01 10:18:29;;;;;;;;;;;3.30;99.90;;;;;;5097754;28;19908;-78
2023/03/01 10:21:01;;;;;;;;;;;3.40;99.90;;;;;;5097134;28;19986;-78
2023/03/01 10:23:28;;;;;;;;;;;3.50;99.90;;;;;;5080741;28;19912;-79
2023/03/01 10:25:56;;;;;;;;;;;3.50;99.90;;;;;;5099117;28;19915;-79
2023/03/01 10:28:40;;;;;;;;;;;3.50;99.90;;;;;;5097186;28;19947;-77
2023/03/01 10:31:11;;;;;;;;;;;3.60;99.90;;;;;;5078463;28;20390;-78
2023/03/01 10:33:39;;;;;;;;;;;3.60;99.90;;;;;;5097340;28;20006;-78
2023/03/01 10:36:05;;;;;;;;;;;3.60;99.90;;;;;;5096870;28;19969;-78
2023/03/01 10:38:31;;;;;;;;;;;3.70;99.90;;;;;;5097779;28;20360;-77
2023/03/01 10:40:58;;;;;;;;;;;3.70;99.90;;;;;;5097341;28;19979;-78
2023/03/01 10:43:40;;;;;;;;;;;3.70;99.90;;;;;;5096168;28;20283;-78
2023/03/01 10:46:21;;;;;;;;;;;3.70;99.90;;;;;;5095842;28;20367;-77
2023/03/01 10:49:04;;;;;;;;;;;3.80;99.90;;;;;;5096252;28;19961;-78
2023/03/01 10:51:30;;;;;;;;;;;3.80;99.90;;;;;;5096541;28;19915;-78
2023/03/01 10:53:55;;;;;;;;;;;4.00;99.90;;;;;;5095558;28;19912;-77
2023/03/01 10:56:21;;;;;;;;;;;4.10;99.90;;;;;;5076947;28;19981;-77
2023/03/01 10:59:00;;;;;;;;;;;4.00;99.90;;;;;;5095181;28;19927;-77
2023/03/01 11:01:27;;;;;;;;;;;4.10;99.90;;;;;;5094411;28;20029;-77
2023/03/01 11:04:05;;;;;;;;;;;4.10;99.90;;;;;;5095329;28;19912;-77
2023/03/01 11:06:31;;;;;;;;;;;4.10;99.90;;;;;;5094878;28;19908;-78
2023/03/01 11:08:56;;;;;;;;;;;4.10;99.90;;;;;;5094600;28;19914;-77
2023/03/01 11:11:32;;;;;;;;;;;4.20;99.90;;;;;;5076214;28;19912;-77
2023/03/01 11:14:00;;;;;;;;;;;4.30;99.90;;;;;;5094229;28;19961;-77
2023/03/01 11:16:25;;;;;;;;;;;4.40;99.90;;;;;;5093937;28;19951;-77
2023/03/01 11:18:58;;;;;;;;;;;4.50;99.90;;;;;;5094261;28;19908;-77
2023/03/01 11:21:25;;;;;;;;;;;4.50;99.90;;;;;;5094361;28;19913;-77
2023/03/01 11:23:51;;;;;;;;;;;4.50;99.90;;;;;;5093741;28;19916;-77
2023/03/01 11:26:17;;;;;;;;;;;4.50;99.90;;;;;;5075857;28;19912;-77
2023/03/01 11:28:44;;;;;;;;;;;4.60;99.90;;;;;;5094145;28;20318;-77
2023/03/01 11:31:14;;;;;;;;;;;4.60;99.90;;;;;;5093817;28;19908;-77
2023/03/01 11:33:45;;;;;;;;;;;4.70;99.90;;;;;;5094128;28;19936;-77
2023/03/01 11:36:26;;;;;;;;;;;4.70;99.90;;;;;;5094261;28;20363;-77
2023/03/01 11:38:53;;;;;;;;;;;4.80;99.90;;;;;;5094470;28;19951;-77
2023/03/01 11:41:23;;;;;;;;;;;4.90;99.90;;;;;;5093966;28;19908;-77
2023/03/01 11:43:55;;;;;;;;;;;4.90;99.90;;;;;;5094264;28;20014;-75
2023/03/01 11:46:21;;;;;;;;;;;5.00;99.90;;;;;;5076496;28;19999;-77
2023/03/01 11:48:49;;;;;;;;;;;5.00;99.90;;;;;;5093936;28;20355;-77
2023/03/01 11:51:24;;;;;;;;;;;5.00;99.90;;;;;;5094322;28;20261;-77
2023/03/01 11:54:15;;;;;;;;;;;5.10;99.90;;;;;;5094754;28;19908;-77
2023/03/01 11:56:45;;;;;;;;;;;5.20;99.90;;;;;;5066439;28;19912;-77
2023/03/01 11:59:30;;;;;;;;;;;5.20;99.90;;;;;;5097005;28;19919;-77
2023/03/01 12:02:05;;;;;;;;;;;5.20;99.90;;;;;;5096452;28;19909;-77
2023/03/01 12:04:30;;;;;;;;;;;5.30;99.90;;;;;;5079325;28;19919;-77
2023/03/01 12:07:11;;;;;;;;;;;5.30;99.90;;;;;;5097036;28;19908;-77
2023/03/01 12:09:55;;;;;;;;;;;5.40;99.90;;;;;;5095938;28;19915;-77
2023/03/01 12:12:37;;;;;;;;;;;5.40;99.90;;;;;;5097049;28;19999;-76
2023/03/01 12:15:12;;;;;;;;;;;5.50;99.90;;;;;;5096875;28;19908;-77
2023/03/01 12:17:47;;;;;;;;;;;5.50;99.90;;;;;;5077989;28;19969;-77
2023/03/01 12:20:32;;;;;;;;;;;5.60;99.90;;;;;;5096950;28;19912;-76
2023/03/01 12:23:04;;;;;;;;;;;5.70;99.90;;;;;;5091398;28;20337;-77
2023/03/01 12:25:41;;;;;;;;;;;5.70;99.90;;;;;;5096248;28;19916;-77
2023/03/01 12:28:10;;;;;;;;;;;5.70;99.90;;;;;;5078495;28;20264;-77
2023/03/01 12:30:50;;;;;;;;;;;5.60;99.90;;;;;;5095232;28;19961;-76
2023/03/01 12:33:16;;;;;;;;;;;5.70;99.90;;;;;;5095754;28;20007;-76
2023/03/01 12:35:44;;;;;;;;;;;5.70;99.90;;;;;;5076378;28;20545;-76
2023/03/01 12:38:19;;;;;;;;;;;5.70;99.90;;;;;;5094695;28;19959;-75
2023/03/01 12:41:03;;;;;;;;;;;5.70;99.90;;;;;;5095089;28;20363;-76
2023/03/01 12:43:49;;;;;;;;;;;5.70;99.90;;;;;;5076963;28;20284;-76
2023/03/01 12:46:20;;;;;;;;;;;5.80;99.90;;;;;;5062907;28;20316;-76
2023/03/01 12:48:51;;;;;;;;;;;5.90;99.90;;;;;;5095373;28;19916;-77
2023/03/01 12:51:20;;;;;;;;;;;5.90;99.90;;;;;;5095995;28;19915;-76
2023/03/01 12:53:50;;;;;;;;;;;5.90;99.90;;;;;;5077415;28;19908;-77
2023/03/01 12:56:18;;;;;;;;;;;5.90;99.90;;;;;;5095773;28;19914;-75
2023/03/01 12:58:46;;;;;;;;;;;6.00;99.90;;;;;;5090405;28;19919;-77
2023/03/01 13:01:24;;;;;;;;;;;6.10;99.90;;;;;;5089145;28;20252;-77
2023/03/01 13:03:55;;;;;;;;;;;6.20;99.90;;;;;;5094445;28;20288;-76
2023/03/01 13:06:23;;;;;;;;;;;6.20;99.90;;;;;;5083273;28;20352;-76
2023/03/01 13:08:52;;;;;;;;;;;6.30;99.90;;;;;;5091562;28;19912;-76
2023/03/01 13:11:19;;;;;;;;;;;6.40;99.90;;;;;;5077392;28;20383;-76
2023/03/01 13:13:46;;;;;;;;;;;6.40;99.90;;;;;;5077572;28;20252;-76
2023/03/01 13:16:29;;;;;;;;;;;6.40;99.90;;;;;;5095158;28;20286;-76
2023/03/01 13:19:17;;;;;;;;;;;6.50;99.90;;;;;;5095603;28;19908;-76
2023/03/01 13:21:45;;;;;;;;;;;6.60;99.90;;;;;;5095484;28;19912;-76
2023/03/01 13:24:28;;;;;;;;;;;6.70;99.90;;;;;;5095304;28;19912;-75
2023/03/01 13:27:09;;;;;;;;;;;6.80;99.90;;;;;;5090064;28;19923;-75
2023/03/01 13:29:51;;;;;;;;;;;6.80;99.90;;;;;;5093389;28;20003;-77
2023/03/01 13:32:20;;;;;;;;;;;6.90;99.90;;;;;;5092613;28;19915;-76
2023/03/01 13:34:49;;;;;;;;;;;6.80;99.90;;;;;;5089010;28;20067;-77
2023/03/01 13:37:29;;;;;;;;;;;6.90;99.90;;;;;;5089444;28;19915;-76
2023/03/01 13:39:57;;;;;;;;;;;7.00;99.90;;;;;;5094887;28;19944;-76
2023/03/01 13:42:31;;;;;;;;;;;7.00;99.90;;;;;;5095089;28;20002;-76
2023/03/01 13:44:57;;;;;;;;;;;6.90;99.90;;;;;;5076619;28;19973;-76
2023/03/01 13:47:23;;;;;;;;;;;7.10;99.90;;;;;;5094664;28;19924;-76
2023/03/01 13:49:53;;;;;;;;;;;7.10;99.90;;;;;;5095267;28;20283;-77
2023/03/01 13:52:39;;;;;;;;;;;7.20;99.90;;;;;;5095841;28;19912;-77
2023/03/01 13:55:06;;;;;;;;;;;7.30;99.90;;;;;;5076903;28;20076;-77
2023/03/01 13:57:38;;;;;;;;;;;7.40;99.90;;;;;;5097037;28;19920;-78
2023/03/01 14:00:05;;;;;;;;;;;7.40;99.90;;;;;;5096691;28;19908;-78
2023/03/01 14:02:31;;;;;;;;;;;7.50;99.90;;;;;;5095503;28;19953;-76
2023/03/01 14:04:57;;;;;;;;;;;7.50;99.90;;;;;;5094942;28;19916;-75
2023/03/01 14:07:24;;;;;;;;;;;7.60;99.90;;;;;;5094461;28;19935;-76
2023/03/01 14:10:05;;;;;;;;;;;7.60;99.90;;;;;;5076195;28;19915;-77
2023/03/01 14:12:33;;;;;;;;;;;7.60;99.90;;;;;;5076878;28;19943;-76
2023/03/01 14:14:59;;;;;;;;;;;7.50;99.90;;;;;;5094718;28;19912;-77
2023/03/01 14:17:27;;;;;;;;;;;7.50;99.90;;;;;;5094108;28;19969;-77
2023/03/01 14:20:00;;;;;;;;;;;7.60;99.90;;;;;;5078029;28;19912;-78
2023/03/01 14:22:31;;;;;;;;;;;7.60;99.90;;;;;;5094467;28;19994;-76
2023/03/01 14:25:01;;;;;;;;;;;7.60;99.90;;;;;;5094302;28;20002;-76
2023/03/01 14:27:33;;;;;;;;;;;7.60;99.90;;;;;;5094265;28;19915;-76
2023/03/01 14:30:00;;;;;;;;;;;7.60;99.90;;;;;;5094369;28;20376;-76
2023/03/01 14:32:29;;;;;;;;;;;7.60;99.90;;;;;;5094071;28;19948;-76
2023/03/01 14:34:56;;;;;;;;;;;7.60;99.90;;;;;;5076446;28;19919;-76
2023/03/01 14:37:24;;;;;;;;;;;7.60;99.90;;;;;;5094446;28;20283;-75
2023/03/01 14:39:50;;;;;;;;;;;7.60;99.90;;;;;;5094195;28;20026;-76
2023/03/01 14:42:16;;;;;;;;;;;7.60;99.90;;;;;;5094363;28;19908;-76